Date,TemperatureHighF,TemperatureAvgF,TemperatureLowF,DewpointHighF,DewpointAvgF,DewpointLowF,HumidityHigh,HumidityAvg,HumidityLow,PressureMaxIn,PressureMinIn,WindSpeedMaxMPH,WindSpeedAvgMPH,GustSpeedMaxMPH,PrecipitationSumIn
2013-9-1,84.9,77.6,72.0,76.2,72.5,69.1,98,85,65,29.80,29.68,8,0,10,0.00
2013-9-2,91.0,78.4,70.7,71.5,66.8,57.7,98,71,41,29.88,29.77,8,2,10,0.00
2013-9-3,92.5,75.4,61.7,67.1,59.6,52.6,95,62,32,30.00,29.85,6,1,8,0.00
2013-9-4,91.2,74.3,60.4,64.3,58.6,54.2,91,61,33,30.09,29.94,10,1,10,0.00
2013-9-5,90.7,74.4,61.9,67.1,60.9,57.3,93,65,39,30.12,29.97,8,1,8,0.00
2013-9-6,90.0,74.6,62.6,69.0,62.4,58.4,97,69,39,30.09,29.91,8,0,8,0.00
2013-9-7,95.2,78.4,66.0,70.8,65.4,62.1,96,67,37,30.00,29.83,7,0,7,0.00
2013-9-8,95.9,80.2,68.7,72.0,67.9,63.6,92,68,40,29.88,29.77,8,0,8,0.00
2013-9-9,97.2,82.5,70.7,74.4,68.8,64.0,98,67,35,29.91,29.80,8,1,8,0.00
2013-9-10,97.7,81.3,68.7,71.0,65.0,59.6,89,61,29,30.03,29.88,8,1,8,0.00
2013-9-11,100.0,80.3,70.2,72.5,67.2,62.7,91,67,32,30.06,29.91,12,1,12,0.00
2013-9-12,93.4,76.6,68.7,75.0,70.5,64.6,98,83,49,30.00,29.85,12,1,12,0.04
2013-9-13,79.0,70.1,62.2,70.7,56.8,51.9,93,64,46,30.03,29.88,10,1,10,0.00
2013-9-14,82.4,66.5,53.2,56.4,50.5,45.5,85,59,34,30.06,29.91,11,2,11,0.00
2013-9-15,87.4,69.1,53.1,60.2,53.1,45.9,83,59,36,30.03,29.91,8,1,8,0.00
2013-9-16,79.0,70.3,65.5,65.4,61.1,56.3,89,73,63,30.15,29.97,11,2,11,0.00
2013-9-17,89.4,73.7,64.4,68.7,64.3,61.9,95,75,44,30.12,29.94,8,2,8,0.00
2013-9-18,88.7,75.5,67.8,74.0,68.1,64.2,95,79,61,30.00,29.85,7,1,7,0.00
2013-9-19,91.6,75.0,70.0,74.1,69.9,66.6,98,85,53,29.94,29.83,11,1,11,0.00
2013-9-20,71.4,67.8,60.3,70.8,67.0,59.7,98,97,91,29.88,29.83,15,2,15,0.70
2013-9-21,80.8,64.2,52.5,60.5,52.4,43.7,98,70,34,29.97,29.83,12,2,12,0.00
2013-9-22,82.6,63.0,47.5,57.2,50.3,44.7,98,66,36,29.97,29.80,10,1,10,0.00
2013-9-23,83.5,65.4,52.3,59.4,54.1,49.5,96,70,41,29.94,29.77,13,2,13,0.00
2013-9-24,88.0,69.7,57.4,65.3,57.3,52.0,98,68,35,29.85,29.68,10,2,10,0.00
2013-9-25,82.9,68.1,59.2,63.2,58.9,55.3,96,74,45,29.83,29.74,9,1,9,0.00
2013-9-26,87.1,70.1,57.6,68.4,61.6,56.8,98,77,45,29.94,29.80,8,1,8,0.00
2013-9-27,86.7,73.0,63.9,70.7,64.5,60.3,98,77,50,30.00,29.85,10,2,10,0.00
2013-9-28,86.0,71.8,65.5,68.6,65.5,60.7,98,82,55,29.97,29.85,27,2,27,0.13
2013-9-29,73.0,66.9,60.8,68.5,64.9,60.2,98,94,76,30.00,29.88,9,2,9,0.12
2013-9-30,82.2,69.5,64.9,70.7,66.1,64.4,98,90,63,29.91,29.80,11,2,11,0.00